sensor_id;sensor_type;location;lat;lon;timestamp;P1;durP1;ratioP1;P2;durP2;ratioP2
5456;SDS011;2751;49.802;9.944;2022-07-30T00:00:04;11.93;;;10.70;;
5456;SDS011;2751;49.802;9.944;2022-07-30T00:02:33;11.77;;;10.77;;
5456;SDS011;2751;49.802;9.944;2022-07-30T00:05:00;13.20;;;9.50;;
5456;SDS011;2751;49.802;9.944;2022-07-30T00:07:27;11.70;;;10.50;;
5456;SDS011;2751;49.802;9.944;2022-07-30T00:09:54;12.83;;;11.40;;
5456;SDS011;2751;49.802;9.944;2022-07-30T00:12:22;11.90;;;10.70;;
5456;SDS011;2751;49.802;9.944;2022-07-30T00:14:49;11.20;;;10.10;;
5456;SDS011;2751;49.802;9.944;2022-07-30T00:17:16;13.70;;;10.37;;
5456;SDS011;2751;49.802;9.944;2022-07-30T00:19:43;11.70;;;10.50;;
5456;SDS011;2751;49.802;9.944;2022-07-30T00:22:11;11.10;;;10.00;;
5456;SDS011;2751;49.802;9.944;2022-07-30T00:24:38;11.60;;;9.73;;
5456;SDS011;2751;49.802;9.944;2022-07-30T00:27:05;11.10;;;10.10;;
5456;SDS011;2751;49.802;9.944;2022-07-30T00:29:33;11.27;;;10.37;;
5456;SDS011;2751;49.802;9.944;2022-07-30T00:32:00;11.53;;;10.20;;
5456;SDS011;2751;49.802;9.944;2022-07-30T00:34:26;11.00;;;10.10;;
5456;SDS011;2751;49.802;9.944;2022-07-30T00:36:53;11.20;;;10.20;;
5456;SDS011;2751;49.802;9.944;2022-07-30T00:39:20;12.53;;;10.80;;
5456;SDS011;2751;49.802;9.944;2022-07-30T00:41:54;12.07;;;10.77;;
5456;SDS011;2751;49.802;9.944;2022-07-30T00:44:22;11.63;;;10.43;;
5456;SDS011;2751;49.802;9.944;2022-07-30T00:46:50;13.60;;;10.63;;
5456;SDS011;2751;49.802;9.944;2022-07-30T00:49:17;12.40;;;11.30;;
5456;SDS011;2751;49.802;9.944;2022-07-30T00:51:44;14.30;;;13.10;;
5456;SDS011;2751;49.802;9.944;2022-07-30T00:54:11;12.43;;;11.30;;
5456;SDS011;2751;49.802;9.944;2022-07-30T00:56:39;13.07;;;11.90;;
5456;SDS011;2751;49.802;9.944;2022-07-30T00:59:06;13.13;;;11.90;;
5456;SDS011;2751;49.802;9.944;2022-07-30T01:01:34;13.37;;;12.17;;
5456;SDS011;2751;49.802;9.944;2022-07-30T01:04:02;13.33;;;12.13;;
5456;SDS011;2751;49.802;9.944;2022-07-30T01:06:32;15.00;;;12.60;;
5456;SDS011;2751;49.802;9.944;2022-07-30T01:08:59;13.17;;;11.77;;
5456;SDS011;2751;49.802;9.944;2022-07-30T01:11:27;14.47;;;12.97;;
5456;SDS011;2751;49.802;9.944;2022-07-30T01:13:59;14.63;;;13.30;;
5456;SDS011;2751;49.802;9.944;2022-07-30T01:16:26;15.50;;;14.00;;
5456;SDS011;2751;49.802;9.944;2022-07-30T01:18:53;15.80;;;14.20;;
5456;SDS011;2751;49.802;9.944;2022-07-30T01:21:42;17.93;;;15.97;;
5456;SDS011;2751;49.802;9.944;2022-07-30T01:24:19;16.20;;;14.50;;
5456;SDS011;2751;49.802;9.944;2022-07-30T01:26:53;16.97;;;15.30;;
5456;SDS011;2751;49.802;9.944;2022-07-30T01:29:21;17.03;;;15.30;;
5456;SDS011;2751;49.802;9.944;2022-07-30T01:31:50;16.97;;;15.27;;
5456;SDS011;2751;49.802;9.944;2022-07-30T01:34:23;17.07;;;15.27;;
5456;SDS011;2751;49.802;9.944;2022-07-30T01:36:52;17.50;;;15.70;;
5456;SDS011;2751;49.802;9.944;2022-07-30T01:39:22;19.37;;;16.50;;
5456;SDS011;2751;49.802;9.944;2022-07-30T01:41:52;18.00;;;16.20;;
5456;SDS011;2751;49.802;9.944;2022-07-30T01:44:21;19.00;;;17.00;;
5456;SDS011;2751;49.802;9.944;2022-07-30T01:46:50;21.30;;;16.60;;
5456;SDS011;2751;49.802;9.944;2022-07-30T01:49:19;19.00;;;16.00;;
5456;SDS011;2751;49.802;9.944;2022-07-30T01:51:47;19.80;;;16.60;;
5456;SDS011;2751;49.802;9.944;2022-07-30T01:54:16;23.23;;;18.77;;
5456;SDS011;2751;49.802;9.944;2022-07-30T01:56:45;20.40;;;17.50;;
5456;SDS011;2751;49.802;9.944;2022-07-30T01:59:17;20.73;;;17.13;;
5456;SDS011;2751;49.802;9.944;2022-07-30T02:01:45;18.63;;;16.83;;
5456;SDS011;2751;49.802;9.944;2022-07-30T02:04:13;17.23;;;15.60;;
5456;SDS011;2751;49.802;9.944;2022-07-30T02:06:41;17.03;;;15.33;;
5456;SDS011;2751;49.802;9.944;2022-07-30T02:09:11;15.13;;;13.63;;
5456;SDS011;2751;49.802;9.944;2022-07-30T02:11:42;16.80;;;15.20;;
5456;SDS011;2751;49.802;9.944;2022-07-30T02:14:29;18.80;;;16.87;;
5456;SDS011;2751;49.802;9.944;2022-07-30T02:17:04;18.20;;;16.40;;
5456;SDS011;2751;49.802;9.944;2022-07-30T02:19:35;15.93;;;14.43;;
5456;SDS011;2751;49.802;9.944;2022-07-30T02:22:05;16.67;;;14.40;;
5456;SDS011;2751;49.802;9.944;2022-07-30T02:24:35;15.37;;;13.87;;
5456;SDS011;2751;49.802;9.944;2022-07-30T02:27:04;13.50;;;12.20;;
5456;SDS011;2751;49.802;9.944;2022-07-30T02:29:36;14.33;;;12.93;;
5456;SDS011;2751;49.802;9.944;2022-07-30T02:32:05;14.37;;;12.90;;
5456;SDS011;2751;49.802;9.944;2022-07-30T02:34:36;13.47;;;12.17;;
5456;SDS011;2751;49.802;9.944;2022-07-30T02:37:05;17.03;;;13.70;;
5456;SDS011;2751;49.802;9.944;2022-07-30T02:39:33;15.50;;;14.00;;
5456;SDS011;2751;49.802;9.944;2022-07-30T02:42:02;16.30;;;14.60;;
5456;SDS011;2751;49.802;9.944;2022-07-30T02:44:31;17.30;;;15.50;;
5456;SDS011;2751;49.802;9.944;2022-07-30T02:47:02;15.80;;;14.30;;
5456;SDS011;2751;49.802;9.944;2022-07-30T02:49:30;16.60;;;15.00;;
5456;SDS011;2751;49.802;9.944;2022-07-30T02:52:00;18.23;;;16.43;;
5456;SDS011;2751;49.802;9.944;2022-07-30T02:54:29;18.37;;;16.47;;
5456;SDS011;2751;49.802;9.944;2022-07-30T02:56:58;18.00;;;16.20;;
5456;SDS011;2751;49.802;9.944;2022-07-30T02:59:26;18.40;;;16.50;;
5456;SDS011;2751;49.802;9.944;2022-07-30T03:01:55;18.30;;;15.97;;
5456;SDS011;2751;49.802;9.944;2022-07-30T03:04:25;19.20;;;17.37;;
5456;SDS011;2751;49.802;9.944;2022-07-30T03:06:52;16.97;;;15.20;;
5456;SDS011;2751;49.802;9.944;2022-07-30T03:09:21;18.00;;;16.20;;
5456;SDS011;2751;49.802;9.944;2022-07-30T03:11:49;20.00;;;17.90;;
5456;SDS011;2751;49.802;9.944;2022-07-30T03:14:17;20.77;;;17.97;;
5456;SDS011;2751;49.802;9.944;2022-07-30T03:16:45;17.40;;;15.63;;
5456;SDS011;2751;49.802;9.944;2022-07-30T03:19:16;23.37;;;20.97;;
5456;SDS011;2751;49.802;9.944;2022-07-30T03:21:50;21.80;;;19.47;;
5456;SDS011;2751;49.802;9.944;2022-07-30T03:24:19;22.30;;;20.10;;
5456;SDS011;2751;49.802;9.944;2022-07-30T03:26:49;20.70;;;18.50;;
5456;SDS011;2751;49.802;9.944;2022-07-30T03:29:17;23.17;;;20.77;;
5456;SDS011;2751;49.802;9.944;2022-07-30T03:31:45;23.57;;;19.60;;
5456;SDS011;2751;49.802;9.944;2022-07-30T03:34:12;22.30;;;18.60;;
5456;SDS011;2751;49.802;9.944;2022-07-30T03:36:41;21.53;;;18.20;;
5456;SDS011;2751;49.802;9.944;2022-07-30T03:39:09;19.43;;;17.13;;
5456;SDS011;2751;49.802;9.944;2022-07-30T03:41:37;18.97;;;17.10;;
5456;SDS011;2751;49.802;9.944;2022-07-30T03:44:06;20.17;;;17.10;;
5456;SDS011;2751;49.802;9.944;2022-07-30T03:46:34;17.73;;;16.00;;
5456;SDS011;2751;49.802;9.944;2022-07-30T03:49:02;16.67;;;14.97;;
5456;SDS011;2751;49.802;9.944;2022-07-30T03:51:30;12.80;;;11.60;;
5456;SDS011;2751;49.802;9.944;2022-07-30T03:53:57;13.67;;;12.47;;
5456;SDS011;2751;49.802;9.944;2022-07-30T03:56:25;13.30;;;12.00;;
5456;SDS011;2751;49.802;9.944;2022-07-30T03:58:52;15.63;;;13.30;;
5456;SDS011;2751;49.802;9.944;2022-07-30T04:01:23;13.63;;;12.37;;
5456;SDS011;2751;49.802;9.944;2022-07-30T04:03:50;13.53;;;12.27;;
5456;SDS011;2751;49.802;9.944;2022-07-30T04:06:17;12.10;;;10.97;;
5456;SDS011;2751;49.802;9.944;2022-07-30T04:08:44;12.27;;;11.17;;
5456;SDS011;2751;49.802;9.944;2022-07-30T04:11:10;12.57;;;11.37;;
5456;SDS011;2751;49.802;9.944;2022-07-30T04:13:39;11.87;;;10.60;;
5456;SDS011;2751;49.802;9.944;2022-07-30T04:16:08;12.37;;;11.27;;
5456;SDS011;2751;49.802;9.944;2022-07-30T04:18:41;11.50;;;10.23;;
5456;SDS011;2751;49.802;9.944;2022-07-30T04:21:10;11.03;;;9.93;;
5456;SDS011;2751;49.802;9.944;2022-07-30T04:23:40;10.90;;;9.90;;
5456;SDS011;2751;49.802;9.944;2022-07-30T04:26:09;11.00;;;10.10;;
5456;SDS011;2751;49.802;9.944;2022-07-30T04:28:36;10.77;;;9.87;;
5456;SDS011;2751;49.802;9.944;2022-07-30T04:31:05;10.93;;;9.93;;
5456;SDS011;2751;49.802;9.944;2022-07-30T04:33:32;10.23;;;9.33;;
5456;SDS011;2751;49.802;9.944;2022-07-30T04:35:59;9.23;;;8.53;;
5456;SDS011;2751;49.802;9.944;2022-07-30T04:38:31;10.10;;;9.30;;
5456;SDS011;2751;49.802;9.944;2022-07-30T04:40:58;9.10;;;8.40;;
5456;SDS011;2751;49.802;9.944;2022-07-30T04:43:25;7.80;;;7.10;;
5456;SDS011;2751;49.802;9.944;2022-07-30T04:45:54;7.93;;;7.30;;
5456;SDS011;2751;49.802;9.944;2022-07-30T04:48:21;7.80;;;7.20;;
5456;SDS011;2751;49.802;9.944;2022-07-30T04:50:50;7.43;;;6.83;;
5456;SDS011;2751;49.802;9.944;2022-07-30T04:53:20;7.67;;;7.07;;
5456;SDS011;2751;49.802;9.944;2022-07-30T04:55:47;7.77;;;7.17;;
5456;SDS011;2751;49.802;9.944;2022-07-30T04:58:17;7.13;;;6.53;;
5456;SDS011;2751;49.802;9.944;2022-07-30T05:00:46;6.97;;;6.27;;
5456;SDS011;2751;49.802;9.944;2022-07-30T05:03:16;6.40;;;5.67;;
5456;SDS011;2751;49.802;9.944;2022-07-30T05:05:45;6.90;;;6.40;;
5456;SDS011;2751;49.802;9.944;2022-07-30T05:08:13;7.50;;;6.90;;
5456;SDS011;2751;49.802;9.944;2022-07-30T05:10:40;7.30;;;6.70;;
5456;SDS011;2751;49.802;9.944;2022-07-30T05:13:09;7.30;;;6.77;;
5456;SDS011;2751;49.802;9.944;2022-07-30T05:15:38;7.00;;;6.43;;
5456;SDS011;2751;49.802;9.944;2022-07-30T05:18:05;7.43;;;6.83;;
5456;SDS011;2751;49.802;9.944;2022-07-30T05:20:34;7.53;;;6.97;;
5456;SDS011;2751;49.802;9.944;2022-07-30T05:23:01;7.77;;;7.03;;
5456;SDS011;2751;49.802;9.944;2022-07-30T05:25:28;7.57;;;6.83;;
5456;SDS011;2751;49.802;9.944;2022-07-30T05:27:55;9.20;;;7.87;;
5456;SDS011;2751;49.802;9.944;2022-07-30T05:30:22;8.33;;;7.63;;
5456;SDS011;2751;49.802;9.944;2022-07-30T05:32:49;7.90;;;7.20;;
5456;SDS011;2751;49.802;9.944;2022-07-30T05:35:16;7.80;;;7.30;;
5456;SDS011;2751;49.802;9.944;2022-07-30T05:37:44;9.00;;;8.17;;
5456;SDS011;2751;49.802;9.944;2022-07-30T05:40:11;7.20;;;6.60;;
5456;SDS011;2751;49.802;9.944;2022-07-30T05:42:38;9.40;;;8.33;;
5456;SDS011;2751;49.802;9.944;2022-07-30T05:45:05;8.53;;;7.73;;
5456;SDS011;2751;49.802;9.944;2022-07-30T05:47:33;8.20;;;7.50;;
5456;SDS011;2751;49.802;9.944;2022-07-30T05:50:00;8.73;;;8.10;;
5456;SDS011;2751;49.802;9.944;2022-07-30T05:52:27;8.20;;;7.60;;
5456;SDS011;2751;49.802;9.944;2022-07-30T05:54:55;8.67;;;7.97;;
5456;SDS011;2751;49.802;9.944;2022-07-30T05:57:22;8.17;;;7.57;;
5456;SDS011;2751;49.802;9.944;2022-07-30T05:59:48;8.10;;;7.40;;
5456;SDS011;2751;49.802;9.944;2022-07-30T06:02:15;7.90;;;7.30;;
5456;SDS011;2751;49.802;9.944;2022-07-30T06:04:42;8.77;;;7.97;;
5456;SDS011;2751;49.802;9.944;2022-07-30T06:07:09;8.03;;;7.33;;
5456;SDS011;2751;49.802;9.944;2022-07-30T06:09:36;9.20;;;8.50;;
5456;SDS011;2751;49.802;9.944;2022-07-30T06:12:04;9.23;;;8.43;;
5456;SDS011;2751;49.802;9.944;2022-07-30T06:14:31;8.73;;;8.00;;
5456;SDS011;2751;49.802;9.944;2022-07-30T06:16:58;10.33;;;8.37;;
5456;SDS011;2751;49.802;9.944;2022-07-30T06:19:25;10.17;;;9.27;;
5456;SDS011;2751;49.802;9.944;2022-07-30T06:21:52;10.43;;;9.37;;
5456;SDS011;2751;49.802;9.944;2022-07-30T06:24:19;9.60;;;8.80;;
5456;SDS011;2751;49.802;9.944;2022-07-30T06:26:46;7.63;;;7.03;;
5456;SDS011;2751;49.802;9.944;2022-07-30T06:29:14;8.70;;;8.00;;
5456;SDS011;2751;49.802;9.944;2022-07-30T06:31:41;8.30;;;7.50;;
5456;SDS011;2751;49.802;9.944;2022-07-30T06:34:08;9.20;;;8.30;;
5456;SDS011;2751;49.802;9.944;2022-07-30T06:36:34;8.37;;;7.53;;
5456;SDS011;2751;49.802;9.944;2022-07-30T06:39:01;8.03;;;7.33;;
5456;SDS011;2751;49.802;9.944;2022-07-30T06:41:28;7.23;;;6.50;;
5456;SDS011;2751;49.802;9.944;2022-07-30T06:43:55;7.60;;;6.90;;
5456;SDS011;2751;49.802;9.944;2022-07-30T06:46:23;7.93;;;7.30;;
5456;SDS011;2751;49.802;9.944;2022-07-30T06:48:50;8.47;;;7.70;;
5456;SDS011;2751;49.802;9.944;2022-07-30T06:51:17;7.43;;;6.77;;
5456;SDS011;2751;49.802;9.944;2022-07-30T06:53:44;8.10;;;7.30;;
5456;SDS011;2751;49.802;9.944;2022-07-30T06:56:11;10.43;;;8.43;;
5456;SDS011;2751;49.802;9.944;2022-07-30T06:58:38;10.03;;;7.97;;
5456;SDS011;2751;49.802;9.944;2022-07-30T07:01:05;9.07;;;8.20;;
5456;SDS011;2751;49.802;9.944;2022-07-30T07:03:33;10.60;;;9.50;;
5456;SDS011;2751;49.802;9.944;2022-07-30T07:06:00;10.20;;;9.10;;
5456;SDS011;2751;49.802;9.944;2022-07-30T07:08:29;12.67;;;9.20;;
5456;SDS011;2751;49.802;9.944;2022-07-30T07:10:56;9.63;;;8.73;;
5456;SDS011;2751;49.802;9.944;2022-07-30T07:13:23;11.50;;;10.40;;
5456;SDS011;2751;49.802;9.944;2022-07-30T07:15:50;11.83;;;9.87;;
5456;SDS011;2751;49.802;9.944;2022-07-30T07:18:17;11.73;;;10.50;;
5456;SDS011;2751;49.802;9.944;2022-07-30T07:20:45;14.10;;;9.30;;
5456;SDS011;2751;49.802;9.944;2022-07-30T07:23:12;10.57;;;9.23;;
5456;SDS011;2751;49.802;9.944;2022-07-30T07:25:39;10.77;;;9.77;;
5456;SDS011;2751;49.802;9.944;2022-07-30T07:28:06;12.80;;;11.40;;
5456;SDS011;2751;49.802;9.944;2022-07-30T07:30:33;15.40;;;11.10;;
5456;SDS011;2751;49.802;9.944;2022-07-30T07:33:00;10.20;;;9.20;;
5456;SDS011;2751;49.802;9.944;2022-07-30T07:35:27;11.80;;;9.97;;
5456;SDS011;2751;49.802;9.944;2022-07-30T07:37:55;10.43;;;8.23;;
5456;SDS011;2751;49.802;9.944;2022-07-30T07:40:22;11.63;;;10.40;;
5456;SDS011;2751;49.802;9.944;2022-07-30T07:42:49;10.87;;;9.20;;
5456;SDS011;2751;49.802;9.944;2022-07-30T07:45:16;11.20;;;10.10;;
5456;SDS011;2751;49.802;9.944;2022-07-30T07:47:43;12.63;;;11.43;;
5456;SDS011;2751;49.802;9.944;2022-07-30T07:50:10;12.90;;;11.60;;
5456;SDS011;2751;49.802;9.944;2022-07-30T07:52:39;12.90;;;11.40;;
5456;SDS011;2751;49.802;9.944;2022-07-30T07:55:08;10.87;;;9.87;;
5456;SDS011;2751;49.802;9.944;2022-07-30T07:57:37;9.47;;;8.70;;
5456;SDS011;2751;49.802;9.944;2022-07-30T08:00:05;11.20;;;9.47;;
5456;SDS011;2751;49.802;9.944;2022-07-30T08:02:33;9.40;;;8.60;;
5456;SDS011;2751;49.802;9.944;2022-07-30T08:05:00;10.03;;;9.13;;
5456;SDS011;2751;49.802;9.944;2022-07-30T08:07:27;9.20;;;8.00;;
5456;SDS011;2751;49.802;9.944;2022-07-30T08:09:54;9.30;;;8.40;;
5456;SDS011;2751;49.802;9.944;2022-07-30T08:12:23;9.00;;;8.10;;
5456;SDS011;2751;49.802;9.944;2022-07-30T08:14:50;7.10;;;6.47;;
5456;SDS011;2751;49.802;9.944;2022-07-30T08:17:17;7.03;;;6.53;;
5456;SDS011;2751;49.802;9.944;2022-07-30T08:19:44;6.60;;;6.00;;
5456;SDS011;2751;49.802;9.944;2022-07-30T08:22:11;6.20;;;5.10;;
5456;SDS011;2751;49.802;9.944;2022-07-30T08:24:38;6.23;;;5.63;;
5456;SDS011;2751;49.802;9.944;2022-07-30T08:27:05;10.73;;;6.30;;
5456;SDS011;2751;49.802;9.944;2022-07-30T08:29:33;6.90;;;6.40;;
5456;SDS011;2751;49.802;9.944;2022-07-30T08:32:00;7.67;;;7.07;;
5456;SDS011;2751;49.802;9.944;2022-07-30T08:34:27;6.33;;;5.83;;
5456;SDS011;2751;49.802;9.944;2022-07-30T08:36:54;7.67;;;6.40;;
5456;SDS011;2751;49.802;9.944;2022-07-30T08:39:21;6.50;;;6.00;;
5456;SDS011;2751;49.802;9.944;2022-07-30T08:41:48;6.30;;;5.70;;
5456;SDS011;2751;49.802;9.944;2022-07-30T08:44:16;6.03;;;5.53;;
5456;SDS011;2751;49.802;9.944;2022-07-30T08:46:47;6.23;;;5.73;;
5456;SDS011;2751;49.802;9.944;2022-07-30T08:49:16;10.07;;;5.13;;
5456;SDS011;2751;49.802;9.944;2022-07-30T08:51:44;6.37;;;5.87;;
5456;SDS011;2751;49.802;9.944;2022-07-30T08:54:11;6.30;;;5.67;;
5456;SDS011;2751;49.802;9.944;2022-07-30T08:56:38;5.73;;;5.33;;
5456;SDS011;2751;49.802;9.944;2022-07-30T08:59:05;4.73;;;4.43;;
5456;SDS011;2751;49.802;9.944;2022-07-30T09:01:32;5.13;;;4.73;;
5456;SDS011;2751;49.802;9.944;2022-07-30T09:04:00;5.20;;;4.80;;
5456;SDS011;2751;49.802;9.944;2022-07-30T09:06:27;4.80;;;4.37;;
5456;SDS011;2751;49.802;9.944;2022-07-30T09:08:54;5.10;;;4.60;;
5456;SDS011;2751;49.802;9.944;2022-07-30T09:11:21;4.63;;;4.33;;
5456;SDS011;2751;49.802;9.944;2022-07-30T09:13:48;6.23;;;4.53;;
5456;SDS011;2751;49.802;9.944;2022-07-30T09:16:19;5.80;;;5.10;;
5456;SDS011;2751;49.802;9.944;2022-07-30T09:18:47;5.33;;;4.83;;
5456;SDS011;2751;49.802;9.944;2022-07-30T09:21:17;6.87;;;4.00;;
5456;SDS011;2751;49.802;9.944;2022-07-30T09:23:56;5.63;;;4.97;;
5456;SDS011;2751;49.802;9.944;2022-07-30T09:26:24;8.53;;;4.17;;
5456;SDS011;2751;49.802;9.944;2022-07-30T09:28:52;5.43;;;3.70;;
5456;SDS011;2751;49.802;9.944;2022-07-30T09:31:20;4.97;;;4.40;;
5456;SDS011;2751;49.802;9.944;2022-07-30T09:33:47;4.43;;;4.00;;
5456;SDS011;2751;49.802;9.944;2022-07-30T09:36:15;7.87;;;4.27;;
5456;SDS011;2751;49.802;9.944;2022-07-30T09:38:44;4.30;;;3.63;;
5456;SDS011;2751;49.802;9.944;2022-07-30T09:41:13;8.70;;;4.33;;
5456;SDS011;2751;49.802;9.944;2022-07-30T09:43:41;4.87;;;4.37;;
5456;SDS011;2751;49.802;9.944;2022-07-30T09:46:09;6.73;;;3.90;;
5456;SDS011;2751;49.802;9.944;2022-07-30T09:48:36;4.50;;;4.20;;
5456;SDS011;2751;49.802;9.944;2022-07-30T09:51:03;4.90;;;4.20;;
5456;SDS011;2751;49.802;9.944;2022-07-30T09:53:32;7.67;;;4.10;;
5456;SDS011;2751;49.802;9.944;2022-07-30T09:56:00;4.37;;;3.97;;
5456;SDS011;2751;49.802;9.944;2022-07-30T09:58:47;5.87;;;4.20;;
5456;SDS011;2751;49.802;9.944;2022-07-30T10:01:14;6.17;;;4.03;;
5456;SDS011;2751;49.802;9.944;2022-07-30T10:03:41;4.53;;;4.10;;
5456;SDS011;2751;49.802;9.944;2022-07-30T10:06:08;4.73;;;4.30;;
5456;SDS011;2751;49.802;9.944;2022-07-30T10:08:40;4.30;;;3.90;;
5456;SDS011;2751;49.802;9.944;2022-07-30T10:11:09;4.93;;;4.17;;
5456;SDS011;2751;49.802;9.944;2022-07-30T10:13:38;4.57;;;3.87;;
5456;SDS011;2751;49.802;9.944;2022-07-30T10:16:05;13.37;;;4.13;;
5456;SDS011;2751;49.802;9.944;2022-07-30T10:18:33;5.40;;;4.27;;
5456;SDS011;2751;49.802;9.944;2022-07-30T10:21:00;5.43;;;4.37;;
5456;SDS011;2751;49.802;9.944;2022-07-30T10:23:28;5.73;;;4.40;;
5456;SDS011;2751;49.802;9.944;2022-07-30T10:25:58;4.63;;;4.23;;
5456;SDS011;2751;49.802;9.944;2022-07-30T10:28:26;4.37;;;3.97;;
5456;SDS011;2751;49.802;9.944;2022-07-30T10:30:55;4.00;;;3.50;;
5456;SDS011;2751;49.802;9.944;2022-07-30T10:33:24;6.77;;;3.80;;
5456;SDS011;2751;49.802;9.944;2022-07-30T10:35:53;3.73;;;3.43;;
5456;SDS011;2751;49.802;9.944;2022-07-30T10:38:21;5.97;;;3.80;;
5456;SDS011;2751;49.802;9.944;2022-07-30T10:40:54;3.60;;;2.83;;
5456;SDS011;2751;49.802;9.944;2022-07-30T10:43:33;3.50;;;3.20;;
5456;SDS011;2751;49.802;9.944;2022-07-30T10:46:22;8.80;;;3.40;;
5456;SDS011;2751;49.802;9.944;2022-07-30T10:49:06;2.70;;;2.50;;
5456;SDS011;2751;49.802;9.944;2022-07-30T10:51:41;5.13;;;3.00;;
5456;SDS011;2751;49.802;9.944;2022-07-30T10:57:04;3.00;;;2.70;;
5456;SDS011;2751;49.802;9.944;2022-07-30T11:02:37;2.10;;;2.00;;
5456;SDS011;2751;49.802;9.944;2022-07-30T11:05:20;2.00;;;1.90;;
5456;SDS011;2751;49.802;9.944;2022-07-30T11:07:48;2.50;;;2.30;;
5456;SDS011;2751;49.802;9.944;2022-07-30T11:13:00;2.53;;;2.33;;
5456;SDS011;2751;49.802;9.944;2022-07-30T11:18:20;3.67;;;2.40;;
5456;SDS011;2751;49.802;9.944;2022-07-30T11:23:41;3.00;;;2.57;;
5456;SDS011;2751;49.802;9.944;2022-07-30T11:26:10;9.63;;;2.30;;
5456;SDS011;2751;49.802;9.944;2022-07-30T11:28:57;2.10;;;2.00;;
5456;SDS011;2751;49.802;9.944;2022-07-30T11:31:27;2.73;;;2.53;;
5456;SDS011;2751;49.802;9.944;2022-07-30T11:37:08;2.40;;;2.20;;
5456;SDS011;2751;49.802;9.944;2022-07-30T11:42:37;2.10;;;2.00;;
5456;SDS011;2751;49.802;9.944;2022-07-30T11:45:21;2.73;;;2.20;;
5456;SDS011;2751;49.802;9.944;2022-07-30T11:47:55;2.50;;;2.30;;
5456;SDS011;2751;49.802;9.944;2022-07-30T11:50:26;2.57;;;2.13;;
5456;SDS011;2751;49.802;9.944;2022-07-30T11:52:55;2.40;;;2.30;;
5456;SDS011;2751;49.802;9.944;2022-07-30T11:55:24;3.53;;;2.70;;
5456;SDS011;2751;49.802;9.944;2022-07-30T11:57:53;2.40;;;2.30;;
5456;SDS011;2751;49.802;9.944;2022-07-30T12:00:20;3.80;;;2.40;;
5456;SDS011;2751;49.802;9.944;2022-07-30T12:02:47;2.57;;;2.00;;
5456;SDS011;2751;49.802;9.944;2022-07-30T12:05:21;5.23;;;2.47;;
5456;SDS011;2751;49.802;9.944;2022-07-30T12:07:49;2.60;;;2.50;;
5456;SDS011;2751;49.802;9.944;2022-07-30T12:10:19;2.33;;;2.13;;
5456;SDS011;2751;49.802;9.944;2022-07-30T12:12:46;2.57;;;2.37;;
5456;SDS011;2751;49.802;9.944;2022-07-30T12:15:27;3.00;;;2.57;;
5456;SDS011;2751;49.802;9.944;2022-07-30T12:17:55;2.93;;;2.33;;
5456;SDS011;2751;49.802;9.944;2022-07-30T12:20:23;2.70;;;2.57;;
5456;SDS011;2751;49.802;9.944;2022-07-30T12:22:50;3.83;;;2.60;;
5456;SDS011;2751;49.802;9.944;2022-07-30T12:25:17;2.77;;;2.57;;
5456;SDS011;2751;49.802;9.944;2022-07-30T12:27:45;3.07;;;2.87;;
5456;SDS011;2751;49.802;9.944;2022-07-30T12:30:13;3.93;;;2.77;;
5456;SDS011;2751;49.802;9.944;2022-07-30T12:32:41;2.50;;;2.40;;
5456;SDS011;2751;49.802;9.944;2022-07-30T12:35:08;3.67;;;2.37;;
5456;SDS011;2751;49.802;9.944;2022-07-30T12:37:37;5.37;;;2.70;;
5456;SDS011;2751;49.802;9.944;2022-07-30T12:40:06;3.03;;;2.83;;
5456;SDS011;2751;49.802;9.944;2022-07-30T12:42:34;2.87;;;2.60;;
5456;SDS011;2751;49.802;9.944;2022-07-30T12:45:03;2.63;;;2.53;;
5456;SDS011;2751;49.802;9.944;2022-07-30T12:47:31;3.13;;;2.67;;
5456;SDS011;2751;49.802;9.944;2022-07-30T12:50:00;2.80;;;2.60;;
5456;SDS011;2751;49.802;9.944;2022-07-30T12:52:30;2.50;;;2.30;;
5456;SDS011;2751;49.802;9.944;2022-07-30T12:55:00;2.97;;;2.73;;
5456;SDS011;2751;49.802;9.944;2022-07-30T13:00:17;2.70;;;2.50;;
5456;SDS011;2751;49.802;9.944;2022-07-30T13:02:44;2.70;;;2.50;;
5456;SDS011;2751;49.802;9.944;2022-07-30T13:05:11;2.60;;;2.50;;
5456;SDS011;2751;49.802;9.944;2022-07-30T13:07:51;2.73;;;2.53;;
5456;SDS011;2751;49.802;9.944;2022-07-30T13:10:20;2.70;;;2.50;;
5456;SDS011;2751;49.802;9.944;2022-07-30T13:12:48;2.93;;;2.73;;
5456;SDS011;2751;49.802;9.944;2022-07-30T13:15:17;3.03;;;2.50;;
5456;SDS011;2751;49.802;9.944;2022-07-30T13:17:45;3.17;;;2.87;;
5456;SDS011;2751;49.802;9.944;2022-07-30T13:20:12;2.90;;;2.70;;
5456;SDS011;2751;49.802;9.944;2022-07-30T13:22:40;2.93;;;2.67;;
5456;SDS011;2751;49.802;9.944;2022-07-30T13:25:07;2.23;;;2.13;;
5456;SDS011;2751;49.802;9.944;2022-07-30T13:27:36;2.53;;;2.33;;
5456;SDS011;2751;49.802;9.944;2022-07-30T13:30:04;2.73;;;2.53;;
5456;SDS011;2751;49.802;9.944;2022-07-30T13:32:31;2.43;;;2.33;;
5456;SDS011;2751;49.802;9.944;2022-07-30T13:34:58;2.37;;;2.27;;
5456;SDS011;2751;49.802;9.944;2022-07-30T13:37:25;3.00;;;2.40;;
5456;SDS011;2751;49.802;9.944;2022-07-30T13:39:52;2.40;;;2.30;;
5456;SDS011;2751;49.802;9.944;2022-07-30T13:42:19;2.30;;;2.20;;
5456;SDS011;2751;49.802;9.944;2022-07-30T13:44:47;2.53;;;2.33;;
5456;SDS011;2751;49.802;9.944;2022-07-30T13:47:15;2.63;;;2.43;;
5456;SDS011;2751;49.802;9.944;2022-07-30T13:49:42;3.93;;;2.20;;
5456;SDS011;2751;49.802;9.944;2022-07-30T13:52:12;2.30;;;2.20;;
5456;SDS011;2751;49.802;9.944;2022-07-30T13:54:39;2.40;;;2.20;;
5456;SDS011;2751;49.802;9.944;2022-07-30T13:57:06;2.67;;;2.57;;
5456;SDS011;2751;49.802;9.944;2022-07-30T13:59:33;4.10;;;2.40;;
5456;SDS011;2751;49.802;9.944;2022-07-30T14:02:01;7.13;;;2.90;;
5456;SDS011;2751;49.802;9.944;2022-07-30T14:04:28;3.07;;;2.53;;
5456;SDS011;2751;49.802;9.944;2022-07-30T14:06:56;2.70;;;2.50;;
5456;SDS011;2751;49.802;9.944;2022-07-30T14:09:22;2.57;;;2.40;;
5456;SDS011;2751;49.802;9.944;2022-07-30T14:11:49;2.67;;;2.50;;
5456;SDS011;2751;49.802;9.944;2022-07-30T14:14:17;2.63;;;2.53;;
5456;SDS011;2751;49.802;9.944;2022-07-30T14:16:44;3.57;;;2.80;;
5456;SDS011;2751;49.802;9.944;2022-07-30T14:19:15;4.30;;;2.20;;
5456;SDS011;2751;49.802;9.944;2022-07-30T14:21:42;2.83;;;2.60;;
5456;SDS011;2751;49.802;9.944;2022-07-30T14:24:09;2.83;;;2.63;;
5456;SDS011;2751;49.802;9.944;2022-07-30T14:26:37;2.00;;;1.90;;
5456;SDS011;2751;49.802;9.944;2022-07-30T14:29:04;2.30;;;2.20;;
5456;SDS011;2751;49.802;9.944;2022-07-30T14:31:32;2.83;;;2.40;;
5456;SDS011;2751;49.802;9.944;2022-07-30T14:33:59;2.30;;;2.20;;
5456;SDS011;2751;49.802;9.944;2022-07-30T14:36:27;2.40;;;2.23;;
5456;SDS011;2751;49.802;9.944;2022-07-30T14:38:55;2.80;;;2.43;;
5456;SDS011;2751;49.802;9.944;2022-07-30T14:41:22;2.50;;;2.40;;
5456;SDS011;2751;49.802;9.944;2022-07-30T14:43:49;4.53;;;2.20;;
5456;SDS011;2751;49.802;9.944;2022-07-30T14:46:16;2.80;;;2.60;;
5456;SDS011;2751;49.802;9.944;2022-07-30T14:48:43;2.67;;;2.50;;
5456;SDS011;2751;49.802;9.944;2022-07-30T14:51:10;2.80;;;2.70;;
5456;SDS011;2751;49.802;9.944;2022-07-30T14:53:39;5.13;;;2.80;;
5456;SDS011;2751;49.802;9.944;2022-07-30T14:56:06;3.00;;;2.43;;
5456;SDS011;2751;49.802;9.944;2022-07-30T14:58:33;2.80;;;2.60;;
5456;SDS011;2751;49.802;9.944;2022-07-30T15:01:02;3.27;;;2.60;;
5456;SDS011;2751;49.802;9.944;2022-07-30T15:03:31;2.20;;;2.10;;
5456;SDS011;2751;49.802;9.944;2022-07-30T15:05:59;2.43;;;2.23;;
5456;SDS011;2751;49.802;9.944;2022-07-30T15:08:26;2.77;;;2.60;;
5456;SDS011;2751;49.802;9.944;2022-07-30T15:10:54;2.40;;;2.30;;
5456;SDS011;2751;49.802;9.944;2022-07-30T15:13:21;2.37;;;2.27;;
5456;SDS011;2751;49.802;9.944;2022-07-30T15:15:48;2.70;;;2.60;;
5456;SDS011;2751;49.802;9.944;2022-07-30T15:18:15;2.23;;;2.10;;
5456;SDS011;2751;49.802;9.944;2022-07-30T15:20:42;2.50;;;2.40;;
5456;SDS011;2751;49.802;9.944;2022-07-30T15:23:09;2.93;;;2.63;;
5456;SDS011;2751;49.802;9.944;2022-07-30T15:25:36;2.97;;;2.67;;
5456;SDS011;2751;49.802;9.944;2022-07-30T15:28:05;2.63;;;2.47;;
5456;SDS011;2751;49.802;9.944;2022-07-30T15:30:32;3.50;;;3.20;;
5456;SDS011;2751;49.802;9.944;2022-07-30T15:32:59;3.03;;;2.83;;
5456;SDS011;2751;49.802;9.944;2022-07-30T15:35:26;2.40;;;2.30;;